Cordislandia, Brazil
Current Conditions -  °F | °C
As of 5:00 PM on Monday 20 Oct 2014 (Local Time) from SBGW Reporting Station
Broken Clouds Broken Clouds  
Wind Chill: 77°   Ceiling: 8000
Heat Index: 79°   Visibility: 6mi
Dew Point: 64°   Wind: 7mph
Humidity: 65%   Direction: 260°W
Pressure: 30"   Gusts: NA
Location:  21.79°S, 45.7°W
Report Text: SBGW 202000Z 26006KT 9999 SCT015 BKN080 25/18 Q1016
Loading
Personal Weather Stations






























Interactive Weather Map
Tropical Storm Tracking
New forecast layout! Learn more

10-Day Weather Forecast

Advertisements
Track Severe Weather on mobile